sensor_id;sensor_type;location;lat;lon;timestamp;pressure;altitude;pressure_sealevel;temperature;humidity
77023;BME280;65952;51.440;-2.054;2023-02-28T00:00:04;102048.63;;;1.12;82.37
77023;BME280;65952;51.440;-2.054;2023-02-28T00:02:36;102047.66;;;1.13;82.24
77023;BME280;65952;51.440;-2.054;2023-02-28T00:05:01;102053.34;;;1.04;82.08
77023;BME280;65952;51.440;-2.054;2023-02-28T00:07:29;102052.09;;;0.92;82.16
77023;BME280;65952;51.440;-2.054;2023-02-28T00:09:55;102051.34;;;0.88;82.34
77023;BME280;65952;51.440;-2.054;2023-02-28T00:12:21;102059.88;;;0.73;82.26
77023;BME280;65952;51.440;-2.054;2023-02-28T00:14:46;102062.09;;;0.61;82.12
77023;BME280;65952;51.440;-2.054;2023-02-28T00:17:11;102073.09;;;0.51;82.13
77023;BME280;65952;51.440;-2.054;2023-02-28T00:19:37;102076.94;;;0.42;82.36
77023;BME280;65952;51.440;-2.054;2023-02-28T00:22:02;102074.47;;;0.37;82.42
77023;BME280;65952;51.440;-2.054;2023-02-28T00:24:28;102077.13;;;0.37;82.68
77023;BME280;65952;51.440;-2.054;2023-02-28T00:26:53;102072.81;;;0.35;82.86
77023;BME280;65952;51.440;-2.054;2023-02-28T00:29:18;102071.31;;;0.27;82.86
77023;BME280;65952;51.440;-2.054;2023-02-28T00:31:44;102075.84;;;0.24;82.85
77023;BME280;65952;51.440;-2.054;2023-02-28T00:34:09;102077.97;;;0.38;83.32
77023;BME280;65952;51.440;-2.054;2023-02-28T00:36:34;102076.94;;;0.42;83.60
77023;BME280;65952;51.440;-2.054;2023-02-28T00:39:00;102071.44;;;0.48;83.60
77023;BME280;65952;51.440;-2.054;2023-02-28T00:41:25;102072.19;;;0.52;83.78
77023;BME280;65952;51.440;-2.054;2023-02-28T00:43:51;102078.84;;;0.60;83.70
77023;BME280;65952;51.440;-2.054;2023-02-28T00:46:16;102070.81;;;0.63;84.21
77023;BME280;65952;51.440;-2.054;2023-02-28T00:48:42;102078.06;;;0.58;83.90
77023;BME280;65952;51.440;-2.054;2023-02-28T00:51:07;102075.19;;;0.64;83.85
77023;BME280;65952;51.440;-2.054;2023-02-28T00:53:33;102077.78;;;0.66;84.10
77023;BME280;65952;51.440;-2.054;2023-02-28T00:55:58;102076.22;;;0.60;83.93
77023;BME280;65952;51.440;-2.054;2023-02-28T00:58:24;102085.44;;;0.50;83.80
77023;BME280;65952;51.440;-2.054;2023-02-28T01:00:51;102093.25;;;0.53;83.95
77023;BME280;65952;51.440;-2.054;2023-02-28T01:03:17;102089.63;;;0.56;84.25
77023;BME280;65952;51.440;-2.054;2023-02-28T01:05:43;102089.25;;;0.65;84.41
77023;BME280;65952;51.440;-2.054;2023-02-28T01:08:09;102084.34;;;0.78;84.61
77023;BME280;65952;51.440;-2.054;2023-02-28T01:10:34;102086.00;;;0.80;84.40
77023;BME280;65952;51.440;-2.054;2023-02-28T01:13:01;102092.78;;;0.88;84.33
77023;BME280;65952;51.440;-2.054;2023-02-28T01:15:27;102094.06;;;0.77;84.13
77023;BME280;65952;51.440;-2.054;2023-02-28T01:17:52;102089.09;;;0.92;84.37
77023;BME280;65952;51.440;-2.054;2023-02-28T01:20:17;102085.66;;;0.90;83.63
77023;BME280;65952;51.440;-2.054;2023-02-28T01:22:43;102091.34;;;0.79;83.91
77023;BME280;65952;51.440;-2.054;2023-02-28T01:25:08;102092.66;;;0.69;83.88
77023;BME280;65952;51.440;-2.054;2023-02-28T01:27:34;102089.72;;;0.53;83.92
77023;BME280;65952;51.440;-2.054;2023-02-28T01:30:01;102093.72;;;0.41;83.75
77023;BME280;65952;51.440;-2.054;2023-02-28T01:32:26;102091.38;;;0.33;83.68
77023;BME280;65952;51.440;-2.054;2023-02-28T01:34:51;102092.56;;;0.24;83.85
77023;BME280;65952;51.440;-2.054;2023-02-28T01:37:17;102084.75;;;0.21;83.99
77023;BME280;65952;51.440;-2.054;2023-02-28T01:39:42;102089.34;;;0.16;83.94
77023;BME280;65952;51.440;-2.054;2023-02-28T01:42:09;102083.97;;;0.19;84.42
77023;BME280;65952;51.440;-2.054;2023-02-28T01:47:25;102082.56;;;0.09;83.96
77023;BME280;65952;51.440;-2.054;2023-02-28T01:49:52;102089.75;;;0.05;84.23
77023;BME280;65952;51.440;-2.054;2023-02-28T01:52:18;102083.94;;;-0.05;83.76
77023;BME280;65952;51.440;-2.054;2023-02-28T01:54:51;102088.63;;;-0.13;83.90
77023;BME280;65952;51.440;-2.054;2023-02-28T01:57:20;102083.56;;;-0.19;83.93
77023;BME280;65952;51.440;-2.054;2023-02-28T01:59:57;102088.13;;;-0.24;83.90
77023;BME280;65952;51.440;-2.054;2023-02-28T02:02:24;102085.63;;;-0.27;84.07
77023;BME280;65952;51.440;-2.054;2023-02-28T02:07:18;102091.25;;;-0.38;84.09
77023;BME280;65952;51.440;-2.054;2023-02-28T02:09:44;102084.44;;;-0.44;83.88
77023;BME280;65952;51.440;-2.054;2023-02-28T02:15:07;102081.09;;;-0.49;84.10
77023;BME280;65952;51.440;-2.054;2023-02-28T02:17:42;102076.72;;;-0.50;84.08
77023;BME280;65952;51.440;-2.054;2023-02-28T02:23:30;102077.59;;;-0.50;84.29
77023;BME280;65952;51.440;-2.054;2023-02-28T02:37:14;102085.06;;;-0.62;84.43
77023;BME280;65952;51.440;-2.054;2023-02-28T02:42:16;102078.06;;;-0.63;84.72
77023;BME280;65952;51.440;-2.054;2023-02-28T02:44:56;102085.91;;;-0.62;84.71
77023;BME280;65952;51.440;-2.054;2023-02-28T02:47:26;102087.50;;;-0.56;84.84
77023;BME280;65952;51.440;-2.054;2023-02-28T02:49:56;102090.97;;;-0.56;84.82
77023;BME280;65952;51.440;-2.054;2023-02-28T02:52:29;102089.22;;;-0.55;84.83
77023;BME280;65952;51.440;-2.054;2023-02-28T02:54:59;102088.34;;;-0.56;84.88
77023;BME280;65952;51.440;-2.054;2023-02-28T02:57:31;102086.41;;;-0.51;85.22
77023;BME280;65952;51.440;-2.054;2023-02-28T03:00:00;102091.41;;;-0.43;85.70
77023;BME280;65952;51.440;-2.054;2023-02-28T03:02:28;102085.63;;;-0.27;86.51
77023;BME280;65952;51.440;-2.054;2023-02-28T03:05:01;102083.47;;;-0.16;86.43
77023;BME280;65952;51.440;-2.054;2023-02-28T03:07:28;102084.16;;;-0.11;86.14
77023;BME280;65952;51.440;-2.054;2023-02-28T03:09:55;102084.00;;;-0.06;86.38
77023;BME280;65952;51.440;-2.054;2023-02-28T03:12:24;102081.88;;;0.04;86.09
77023;BME280;65952;51.440;-2.054;2023-02-28T03:19:56;102084.06;;;0.16;86.10
77023;BME280;65952;51.440;-2.054;2023-02-28T03:25:05;102081.88;;;0.27;85.96
77023;BME280;65952;51.440;-2.054;2023-02-28T03:27:41;102073.78;;;0.32;86.15
77023;BME280;65952;51.440;-2.054;2023-02-28T03:30:14;102077.97;;;0.38;86.17
77023;BME280;65952;51.440;-2.054;2023-02-28T03:33:02;102079.59;;;0.42;86.18
77023;BME280;65952;51.440;-2.054;2023-02-28T03:35:37;102078.53;;;0.46;86.12
77023;BME280;65952;51.440;-2.054;2023-02-28T03:38:29;102080.13;;;0.50;85.97
77023;BME280;65952;51.440;-2.054;2023-02-28T03:41:06;102070.31;;;0.54;85.66
77023;BME280;65952;51.440;-2.054;2023-02-28T03:43:36;102083.53;;;0.54;86.05
77023;BME280;65952;51.440;-2.054;2023-02-28T03:46:09;102073.78;;;0.56;86.00
77023;BME280;65952;51.440;-2.054;2023-02-28T03:48:40;102078.91;;;0.59;86.10
77023;BME280;65952;51.440;-2.054;2023-02-28T03:51:08;102082.47;;;0.58;86.05
77023;BME280;65952;51.440;-2.054;2023-02-28T03:53:38;102075.28;;;0.61;86.00
77023;BME280;65952;51.440;-2.054;2023-02-28T03:56:11;102082.13;;;0.67;85.80
77023;BME280;65952;51.440;-2.054;2023-02-28T03:58:43;102078.44;;;0.71;85.83
77023;BME280;65952;51.440;-2.054;2023-02-28T04:01:27;102069.53;;;0.74;85.92
77023;BME280;65952;51.440;-2.054;2023-02-28T04:03:55;102063.41;;;0.73;85.97
77023;BME280;65952;51.440;-2.054;2023-02-28T04:06:22;102065.91;;;0.76;85.80
77023;BME280;65952;51.440;-2.054;2023-02-28T04:08:48;102058.97;;;0.74;85.70
77023;BME280;65952;51.440;-2.054;2023-02-28T04:11:35;102053.50;;;0.78;85.60
77023;BME280;65952;51.440;-2.054;2023-02-28T04:14:05;102062.78;;;0.89;85.40
77023;BME280;65952;51.440;-2.054;2023-02-28T04:16:36;102066.25;;;0.89;85.11
77023;BME280;65952;51.440;-2.054;2023-02-28T04:19:03;102067.88;;;0.93;85.13
77023;BME280;65952;51.440;-2.054;2023-02-28T04:21:38;102069.78;;;0.90;84.93
77023;BME280;65952;51.440;-2.054;2023-02-28T04:24:04;102076.31;;;0.81;85.05
77023;BME280;65952;51.440;-2.054;2023-02-28T04:26:31;102069.66;;;0.71;84.74
77023;BME280;65952;51.440;-2.054;2023-02-28T04:28:58;102074.28;;;0.66;84.82
77023;BME280;65952;51.440;-2.054;2023-02-28T04:31:23;102081.56;;;0.59;84.85
77023;BME280;65952;51.440;-2.054;2023-02-28T04:33:49;102081.94;;;0.50;84.80
77023;BME280;65952;51.440;-2.054;2023-02-28T04:36:14;102087.50;;;0.42;84.63
77023;BME280;65952;51.440;-2.054;2023-02-28T04:38:43;102084.19;;;0.37;84.74
77023;BME280;65952;51.440;-2.054;2023-02-28T04:41:09;102085.41;;;0.28;84.85
77023;BME280;65952;51.440;-2.054;2023-02-28T04:43:35;102083.75;;;0.24;84.94
77023;BME280;65952;51.440;-2.054;2023-02-28T04:46:02;102089.25;;;0.19;85.02
77023;BME280;65952;51.440;-2.054;2023-02-28T04:48:29;102091.97;;;0.16;84.73
77023;BME280;65952;51.440;-2.054;2023-02-28T04:50:55;102090.31;;;0.13;84.86
77023;BME280;65952;51.440;-2.054;2023-02-28T04:53:21;102085.91;;;0.14;85.18
77023;BME280;65952;51.440;-2.054;2023-02-28T04:55:46;102084.72;;;0.23;85.45
77023;BME280;65952;51.440;-2.054;2023-02-28T04:58:14;102081.03;;;0.27;85.25
77023;BME280;65952;51.440;-2.054;2023-02-28T05:00:40;102084.50;;;0.27;85.29
77023;BME280;65952;51.440;-2.054;2023-02-28T05:03:05;102085.50;;;0.25;85.34
77023;BME280;65952;51.440;-2.054;2023-02-28T05:05:31;102087.28;;;0.24;85.06
77023;BME280;65952;51.440;-2.054;2023-02-28T05:07:56;102096.19;;;0.22;85.18
77023;BME280;65952;51.440;-2.054;2023-02-28T05:10:22;102095.38;;;0.20;85.34
77023;BME280;65952;51.440;-2.054;2023-02-28T05:12:48;102098.06;;;0.18;85.20
77023;BME280;65952;51.440;-2.054;2023-02-28T05:15:15;102101.50;;;0.20;85.19
77023;BME280;65952;51.440;-2.054;2023-02-28T05:17:40;102099.81;;;0.19;85.21
77023;BME280;65952;51.440;-2.054;2023-02-28T05:20:07;102093.66;;;0.19;85.00
77023;BME280;65952;51.440;-2.054;2023-02-28T05:22:34;102100.50;;;0.24;85.27
77023;BME280;65952;51.440;-2.054;2023-02-28T05:24:59;102103.00;;;0.27;85.33
77023;BME280;65952;51.440;-2.054;2023-02-28T05:27:24;102105.66;;;0.27;85.26
77023;BME280;65952;51.440;-2.054;2023-02-28T05:29:50;102104.75;;;0.28;85.23
77023;BME280;65952;51.440;-2.054;2023-02-28T05:32:15;102111.81;;;0.28;85.33
77023;BME280;65952;51.440;-2.054;2023-02-28T05:34:41;102115.06;;;0.35;85.31
77023;BME280;65952;51.440;-2.054;2023-02-28T05:37:11;102099.84;;;0.41;85.48
77023;BME280;65952;51.440;-2.054;2023-02-28T05:39:37;102107.38;;;0.52;85.59
77023;BME280;65952;51.440;-2.054;2023-02-28T05:42:04;102111.03;;;0.72;85.30
77023;BME280;65952;51.440;-2.054;2023-02-28T05:44:29;102106.72;;;0.69;85.29
77023;BME280;65952;51.440;-2.054;2023-02-28T05:46:54;102106.91;;;0.64;85.14
77023;BME280;65952;51.440;-2.054;2023-02-28T05:49:20;102109.72;;;0.60;85.12
77023;BME280;65952;51.440;-2.054;2023-02-28T05:51:45;102114.56;;;0.48;84.95
77023;BME280;65952;51.440;-2.054;2023-02-28T05:54:11;102122.13;;;0.58;85.25
77023;BME280;65952;51.440;-2.054;2023-02-28T05:56:36;102116.94;;;0.78;85.19
77023;BME280;65952;51.440;-2.054;2023-02-28T05:59:04;102115.22;;;0.77;84.93
77023;BME280;65952;51.440;-2.054;2023-02-28T06:01:34;102121.19;;;0.83;84.89
77023;BME280;65952;51.440;-2.054;2023-02-28T06:04:02;102127.47;;;0.80;84.95
77023;BME280;65952;51.440;-2.054;2023-02-28T06:06:28;102126.72;;;0.76;84.97
77023;BME280;65952;51.440;-2.054;2023-02-28T06:08:54;102126.78;;;0.75;84.87
77023;BME280;65952;51.440;-2.054;2023-02-28T06:11:20;102131.38;;;0.70;84.78
77023;BME280;65952;51.440;-2.054;2023-02-28T06:13:45;102119.44;;;0.59;84.83
77023;BME280;65952;51.440;-2.054;2023-02-28T06:16:11;102116.22;;;0.51;84.81
77023;BME280;65952;51.440;-2.054;2023-02-28T06:18:37;102113.19;;;0.38;84.89
77023;BME280;65952;51.440;-2.054;2023-02-28T06:21:03;102106.53;;;0.28;84.68
77023;BME280;65952;51.440;-2.054;2023-02-28T06:23:28;102109.44;;;0.20;84.47
77023;BME280;65952;51.440;-2.054;2023-02-28T06:25:54;102116.78;;;0.12;84.71
77023;BME280;65952;51.440;-2.054;2023-02-28T06:28:22;102114.25;;;0.09;85.06
77023;BME280;65952;51.440;-2.054;2023-02-28T06:30:48;102115.00;;;0.12;85.07
77023;BME280;65952;51.440;-2.054;2023-02-28T06:33:13;102120.81;;;0.22;85.47
77023;BME280;65952;51.440;-2.054;2023-02-28T06:35:38;102116.81;;;0.36;85.72
77023;BME280;65952;51.440;-2.054;2023-02-28T06:38:04;102119.03;;;0.46;86.05
77023;BME280;65952;51.440;-2.054;2023-02-28T06:40:29;102125.59;;;0.60;86.13
77023;BME280;65952;51.440;-2.054;2023-02-28T06:42:59;102114.25;;;0.80;86.12
77023;BME280;65952;51.440;-2.054;2023-02-28T06:45:24;102118.19;;;0.92;86.50
77023;BME280;65952;51.440;-2.054;2023-02-28T06:47:51;102116.91;;;1.02;86.28
77023;BME280;65952;51.440;-2.054;2023-02-28T06:50:17;102117.59;;;1.50;86.06
77023;BME280;65952;51.440;-2.054;2023-02-28T06:52:44;102122.09;;;1.69;85.29
77023;BME280;65952;51.440;-2.054;2023-02-28T06:55:10;102114.59;;;1.78;85.01
77023;BME280;65952;51.440;-2.054;2023-02-28T06:57:36;102112.41;;;1.88;84.28
77023;BME280;65952;51.440;-2.054;2023-02-28T07:00:05;102126.97;;;1.99;83.80
77023;BME280;65952;51.440;-2.054;2023-02-28T07:02:33;102123.78;;;2.11;83.09
77023;BME280;65952;51.440;-2.054;2023-02-28T07:04:58;102121.53;;;2.22;82.76
77023;BME280;65952;51.440;-2.054;2023-02-28T07:07:24;102121.53;;;2.22;82.95
77023;BME280;65952;51.440;-2.054;2023-02-28T07:09:49;102126.34;;;2.33;82.55
77023;BME280;65952;51.440;-2.054;2023-02-28T07:12:14;102125.63;;;2.49;82.08
77023;BME280;65952;51.440;-2.054;2023-02-28T07:14:40;102136.53;;;2.62;81.35
77023;BME280;65952;51.440;-2.054;2023-02-28T07:17:09;102124.94;;;2.64;81.35
77023;BME280;65952;51.440;-2.054;2023-02-28T07:19:37;102134.59;;;2.65;81.45
77023;BME280;65952;51.440;-2.054;2023-02-28T07:22:03;102127.00;;;2.76;81.08
77023;BME280;65952;51.440;-2.054;2023-02-28T07:24:29;102135.38;;;2.86;80.84
77023;BME280;65952;51.440;-2.054;2023-02-28T07:26:55;102129.00;;;2.90;80.93
77023;BME280;65952;51.440;-2.054;2023-02-28T07:29:20;102134.16;;;2.93;80.83
77023;BME280;65952;51.440;-2.054;2023-02-28T07:31:46;102135.19;;;2.91;81.04
77023;BME280;65952;51.440;-2.054;2023-02-28T07:34:12;102128.50;;;3.01;80.83
77023;BME280;65952;51.440;-2.054;2023-02-28T07:36:37;102125.66;;;3.04;80.48
77023;BME280;65952;51.440;-2.054;2023-02-28T07:39:03;102128.81;;;3.13;80.14
77023;BME280;65952;51.440;-2.054;2023-02-28T07:41:29;102121.50;;;3.18;79.76
77023;BME280;65952;51.440;-2.054;2023-02-28T07:43:58;102125.50;;;3.27;79.35
77023;BME280;65952;51.440;-2.054;2023-02-28T07:46:25;102123.63;;;3.29;79.20
77023;BME280;65952;51.440;-2.054;2023-02-28T07:48:51;102123.66;;;3.46;78.25
77023;BME280;65952;51.440;-2.054;2023-02-28T07:51:18;102133.88;;;3.54;77.95
77023;BME280;65952;51.440;-2.054;2023-02-28T07:53:43;102141.47;;;3.62;77.45
77023;BME280;65952;51.440;-2.054;2023-02-28T07:56:09;102141.38;;;3.63;77.43
77023;BME280;65952;51.440;-2.054;2023-02-28T07:58:36;102129.72;;;3.66;77.38
77023;BME280;65952;51.440;-2.054;2023-02-28T08:01:08;102143.91;;;3.84;77.29
77023;BME280;65952;51.440;-2.054;2023-02-28T08:03:34;102147.94;;;3.91;77.47
77023;BME280;65952;51.440;-2.054;2023-02-28T08:06:01;102148.22;;;4.02;77.06
77023;BME280;65952;51.440;-2.054;2023-02-28T08:08:27;102141.13;;;4.03;77.17
77023;BME280;65952;51.440;-2.054;2023-02-28T08:10:58;102160.50;;;4.05;77.32
77023;BME280;65952;51.440;-2.054;2023-02-28T08:13:25;102154.34;;;4.04;77.35
77023;BME280;65952;51.440;-2.054;2023-02-28T08:15:50;102155.34;;;4.02;77.14
77023;BME280;65952;51.440;-2.054;2023-02-28T08:18:16;102158.63;;;4.07;77.14
77023;BME280;65952;51.440;-2.054;2023-02-28T08:20:41;102157.69;;;4.08;77.00
77023;BME280;65952;51.440;-2.054;2023-02-28T08:23:06;102154.81;;;4.13;76.86
77023;BME280;65952;51.440;-2.054;2023-02-28T08:25:32;102160.56;;;4.21;76.66
77023;BME280;65952;51.440;-2.054;2023-02-28T08:27:57;102160.25;;;4.27;76.17
77023;BME280;65952;51.440;-2.054;2023-02-28T08:30:23;102157.91;;;4.21;76.18
77023;BME280;65952;51.440;-2.054;2023-02-28T08:32:48;102162.38;;;4.20;75.74
77023;BME280;65952;51.440;-2.054;2023-02-28T08:35:13;102165.47;;;4.29;74.87
77023;BME280;65952;51.440;-2.054;2023-02-28T08:37:39;102167.16;;;4.47;74.80
77023;BME280;65952;51.440;-2.054;2023-02-28T08:40:04;102165.97;;;4.53;74.68
77023;BME280;65952;51.440;-2.054;2023-02-28T08:42:31;102165.28;;;4.65;74.47
77023;BME280;65952;51.440;-2.054;2023-02-28T08:44:57;102162.91;;;4.61;75.05
77023;BME280;65952;51.440;-2.054;2023-02-28T08:47:22;102158.88;;;4.69;75.13
77023;BME280;65952;51.440;-2.054;2023-02-28T08:49:48;102162.81;;;4.62;76.04
77023;BME280;65952;51.440;-2.054;2023-02-28T08:52:13;102163.88;;;4.42;77.43
77023;BME280;65952;51.440;-2.054;2023-02-28T08:54:39;102165.84;;;4.38;77.97
77023;BME280;65952;51.440;-2.054;2023-02-28T08:57:04;102164.38;;;4.33;78.61
77023;BME280;65952;51.440;-2.054;2023-02-28T08:59:30;102162.84;;;4.45;78.35
77023;BME280;65952;51.440;-2.054;2023-02-28T09:01:55;102162.16;;;4.41;78.78
77023;BME280;65952;51.440;-2.054;2023-02-28T09:04:21;102164.59;;;4.46;78.92
77023;BME280;65952;51.440;-2.054;2023-02-28T09:06:46;102160.47;;;4.56;78.36
77023;BME280;65952;51.440;-2.054;2023-02-28T09:09:13;102155.94;;;4.74;77.92
77023;BME280;65952;51.440;-2.054;2023-02-28T09:11:39;102151.56;;;4.89;77.14
77023;BME280;65952;51.440;-2.054;2023-02-28T09:14:04;102162.22;;;4.73;77.41
77023;BME280;65952;51.440;-2.054;2023-02-28T09:16:31;102157.69;;;4.91;77.12
77023;BME280;65952;51.440;-2.054;2023-02-28T09:18:57;102161.19;;;4.92;76.71
77023;BME280;65952;51.440;-2.054;2023-02-28T09:21:22;102154.16;;;4.91;76.81
77023;BME280;65952;51.440;-2.054;2023-02-28T09:23:49;102158.38;;;4.95;75.86
77023;BME280;65952;51.440;-2.054;2023-02-28T09:28:40;102160.00;;;5.13;75.41
77023;BME280;65952;51.440;-2.054;2023-02-28T09:31:06;102155.97;;;5.22;75.10
77023;BME280;65952;51.440;-2.054;2023-02-28T09:33:31;102150.19;;;5.30;74.99
77023;BME280;65952;51.440;-2.054;2023-02-28T09:35:59;102150.78;;;5.35;74.87
77023;BME280;65952;51.440;-2.054;2023-02-28T09:38:25;102156.59;;;5.42;74.27
77023;BME280;65952;51.440;-2.054;2023-02-28T09:40:53;102151.75;;;5.48;73.84
77023;BME280;65952;51.440;-2.054;2023-02-28T09:43:22;102158.97;;;5.62;73.71
77023;BME280;65952;51.440;-2.054;2023-02-28T09:45:53;102144.28;;;5.55;73.83
77023;BME280;65952;51.440;-2.054;2023-02-28T09:48:28;102146.69;;;5.60;73.36
77023;BME280;65952;51.440;-2.054;2023-02-28T09:51:04;102146.13;;;5.69;72.75
77023;BME280;65952;51.440;-2.054;2023-02-28T09:53:35;102138.50;;;5.63;73.12
77023;BME280;65952;51.440;-2.054;2023-02-28T09:56:39;102146.03;;;5.70;72.96
77023;BME280;65952;51.440;-2.054;2023-02-28T10:01:50;102148.22;;;5.64;71.19
77023;BME280;65952;51.440;-2.054;2023-02-28T10:06:50;102135.47;;;6.72;67.22
77023;BME280;65952;51.440;-2.054;2023-02-28T10:09:23;102139.94;;;6.86;66.91
77023;BME280;65952;51.440;-2.054;2023-02-28T10:11:52;102141.78;;;6.71;66.80
77023;BME280;65952;51.440;-2.054;2023-02-28T10:14:21;102139.22;;;6.55;67.13
77023;BME280;65952;51.440;-2.054;2023-02-28T10:17:10;102145.38;;;6.26;68.13
77023;BME280;65952;51.440;-2.054;2023-02-28T10:24:48;102137.41;;;5.81;70.03
77023;BME280;65952;51.440;-2.054;2023-02-28T10:27:20;102139.66;;;6.04;69.70
77023;BME280;65952;51.440;-2.054;2023-02-28T10:29:49;102135.69;;;6.11;69.57
77023;BME280;65952;51.440;-2.054;2023-02-28T10:32:17;102136.44;;;6.13;69.41
77023;BME280;65952;51.440;-2.054;2023-02-28T10:34:43;102125.31;;;6.21;69.52
77023;BME280;65952;51.440;-2.054;2023-02-28T10:37:10;102125.41;;;6.19;69.69
77023;BME280;65952;51.440;-2.054;2023-02-28T10:39:39;102128.06;;;6.33;69.06
77023;BME280;65952;51.440;-2.054;2023-02-28T10:42:19;102127.78;;;6.24;68.69
77023;BME280;65952;51.440;-2.054;2023-02-28T10:44:45;102136.06;;;6.48;68.77
77023;BME280;65952;51.440;-2.054;2023-02-28T10:47:17;102124.72;;;6.59;68.24
77023;BME280;65952;51.440;-2.054;2023-02-28T10:49:49;102128.91;;;6.48;68.70
77023;BME280;65952;51.440;-2.054;2023-02-28T10:52:33;102125.94;;;6.67;68.56
77023;BME280;65952;51.440;-2.054;2023-02-28T10:55:20;102133.44;;;6.75;69.06
77023;BME280;65952;51.440;-2.054;2023-02-28T10:57:46;102133.38;;;6.62;68.80
77023;BME280;65952;51.440;-2.054;2023-02-28T11:00:16;102127.38;;;6.59;68.98
77023;BME280;65952;51.440;-2.054;2023-02-28T11:02:42;102130.16;;;6.72;69.34
77023;BME280;65952;51.440;-2.054;2023-02-28T11:05:26;102126.50;;;6.73;68.92
77023;BME280;65952;51.440;-2.054;2023-02-28T11:07:54;102125.94;;;6.67;68.93
77023;BME280;65952;51.440;-2.054;2023-02-28T11:10:21;102126.53;;;6.58;69.80
77023;BME280;65952;51.440;-2.054;2023-02-28T11:12:49;102127.72;;;6.81;69.45
77023;BME280;65952;51.440;-2.054;2023-02-28T11:17:54;102118.88;;;6.81;68.95
77023;BME280;65952;51.440;-2.054;2023-02-28T11:20:25;102124.47;;;6.91;68.78
77023;BME280;65952;51.440;-2.054;2023-02-28T11:22:53;102108.31;;;6.65;69.59
77023;BME280;65952;51.440;-2.054;2023-02-28T11:25:38;102112.09;;;6.75;69.42
77023;BME280;65952;51.440;-2.054;2023-02-28T11:33:32;102100.91;;;6.56;70.19
77023;BME280;65952;51.440;-2.054;2023-02-28T11:36:27;102101.47;;;6.46;70.42
77023;BME280;65952;51.440;-2.054;2023-02-28T11:38:54;102100.78;;;6.57;70.42
77023;BME280;65952;51.440;-2.054;2023-02-28T11:49:31;102096.28;;;6.72;68.97
77023;BME280;65952;51.440;-2.054;2023-02-28T11:52:15;102084.66;;;6.73;68.59
77023;BME280;65952;51.440;-2.054;2023-02-28T12:00:17;102083.72;;;6.60;69.37
77023;BME280;65952;51.440;-2.054;2023-02-28T12:08:50;102089.34;;;6.70;68.96
77023;BME280;65952;51.440;-2.054;2023-02-28T12:17:03;102077.75;;;6.83;67.55
77023;BME280;65952;51.440;-2.054;2023-02-28T12:27:40;102062.41;;;6.87;67.30
77023;BME280;65952;51.440;-2.054;2023-02-28T12:32:55;102059.78;;;7.00;67.26
77023;BME280;65952;51.440;-2.054;2023-02-28T12:35:26;102051.63;;;6.89;67.04
77023;BME280;65952;51.440;-2.054;2023-02-28T12:38:02;102056.69;;;7.06;67.09
77023;BME280;65952;51.440;-2.054;2023-02-28T12:40:43;102050.59;;;7.04;66.66
77023;BME280;65952;51.440;-2.054;2023-02-28T12:43:12;102046.53;;;6.98;66.66
77023;BME280;65952;51.440;-2.054;2023-02-28T12:45:50;102047.72;;;7.07;65.76
77023;BME280;65952;51.440;-2.054;2023-02-28T12:48:25;102047.19;;;7.02;66.13
77023;BME280;65952;51.440;-2.054;2023-02-28T12:50:52;102040.44;;;7.09;66.10
77023;BME280;65952;51.440;-2.054;2023-02-28T12:56:21;102032.31;;;6.98;66.72
77023;BME280;65952;51.440;-2.054;2023-02-28T12:58:57;102037.72;;;7.11;67.10
77023;BME280;65952;51.440;-2.054;2023-02-28T13:01:33;102029.72;;;7.37;66.14
77023;BME280;65952;51.440;-2.054;2023-02-28T13:09:11;102010.50;;;7.44;66.00
77023;BME280;65952;51.440;-2.054;2023-02-28T13:14:18;102016.72;;;7.58;66.27
77023;BME280;65952;51.440;-2.054;2023-02-28T13:19:57;102003.88;;;7.63;66.73
77023;BME280;65952;51.440;-2.054;2023-02-28T13:22:44;101997.25;;;7.56;66.55
77023;BME280;65952;51.440;-2.054;2023-02-28T13:27:49;101986.13;;;7.88;66.48
77023;BME280;65952;51.440;-2.054;2023-02-28T13:38:55;101980.34;;;7.94;65.45
77023;BME280;65952;51.440;-2.054;2023-02-28T13:44:12;101968.16;;;7.77;64.66
77023;BME280;65952;51.440;-2.054;2023-02-28T13:52:15;101952.75;;;7.80;65.09
77023;BME280;65952;51.440;-2.054;2023-02-28T14:03:07;101944.53;;;7.84;64.90
77023;BME280;65952;51.440;-2.054;2023-02-28T14:05:36;101933.47;;;7.88;64.97
77023;BME280;65952;51.440;-2.054;2023-02-28T14:08:14;101939.53;;;8.03;64.69
77023;BME280;65952;51.440;-2.054;2023-02-28T14:10:45;101932.84;;;8.22;64.40
77023;BME280;65952;51.440;-2.054;2023-02-28T14:13:42;101927.31;;;8.36;63.74
77023;BME280;65952;51.440;-2.054;2023-02-28T14:16:43;101924.81;;;8.22;64.53
77023;BME280;65952;51.440;-2.054;2023-02-28T14:21:35;101914.00;;;7.99;65.42
77023;BME280;65952;51.440;-2.054;2023-02-28T14:24:21;101920.31;;;8.22;65.18
77023;BME280;65952;51.440;-2.054;2023-02-28T14:27:14;101910.75;;;8.31;64.88
77023;BME280;65952;51.440;-2.054;2023-02-28T14:37:52;101892.03;;;8.31;63.74
77023;BME280;65952;51.440;-2.054;2023-02-28T14:40:31;101885.63;;;8.45;63.38
77023;BME280;65952;51.440;-2.054;2023-02-28T14:43:03;101879.63;;;8.30;63.11
77023;BME280;65952;51.440;-2.054;2023-02-28T14:45:31;101886.47;;;8.34;63.91
77023;BME280;65952;51.440;-2.054;2023-02-28T14:47:58;101873.81;;;8.36;64.67
77023;BME280;65952;51.440;-2.054;2023-02-28T14:50:29;101872.50;;;8.42;64.19
77023;BME280;65952;51.440;-2.054;2023-02-28T14:52:55;101866.28;;;8.41;64.53
77023;BME280;65952;51.440;-2.054;2023-02-28T14:55:32;101853.72;;;8.30;65.00
77023;BME280;65952;51.440;-2.054;2023-02-28T14:58:04;101866.22;;;8.30;64.84
77023;BME280;65952;51.440;-2.054;2023-02-28T15:00:36;101857.72;;;8.49;65.04
77023;BME280;65952;51.440;-2.054;2023-02-28T15:03:21;101860.97;;;8.77;65.08
77023;BME280;65952;51.440;-2.054;2023-02-28T15:05:58;101868.75;;;8.44;64.87
77023;BME280;65952;51.440;-2.054;2023-02-28T15:08:24;101863.81;;;8.51;65.54
77023;BME280;65952;51.440;-2.054;2023-02-28T15:10:53;101853.13;;;8.62;65.70
77023;BME280;65952;51.440;-2.054;2023-02-28T15:13:19;101841.88;;;8.22;66.07
77023;BME280;65952;51.440;-2.054;2023-02-28T15:15:53;101845.69;;;8.30;65.51
77023;BME280;65952;51.440;-2.054;2023-02-28T15:21:11;101831.66;;;8.16;65.90
77023;BME280;65952;51.440;-2.054;2023-02-28T15:23:38;101835.28;;;8.14;66.23